sensor_id;sensor_type;location;lat;lon;timestamp;P1;durP1;ratioP1;P2;durP2;ratioP2
69083;SDS011;56185;48.526;9.044;2023-05-07T00:01:26;5.90;;;2.80;;
69083;SDS011;56185;48.526;9.044;2023-05-07T00:03:51;5.43;;;3.13;;
69083;SDS011;56185;48.526;9.044;2023-05-07T00:06:16;4.50;;;2.50;;
69083;SDS011;56185;48.526;9.044;2023-05-07T00:08:41;3.23;;;2.27;;
69083;SDS011;56185;48.526;9.044;2023-05-07T00:11:06;7.50;;;2.87;;
69083;SDS011;56185;48.526;9.044;2023-05-07T00:13:33;5.75;;;2.25;;
69083;SDS011;56185;48.526;9.044;2023-05-07T00:15:58;4.83;;;2.50;;
69083;SDS011;56185;48.526;9.044;2023-05-07T00:18:23;4.50;;;3.00;;
69083;SDS011;56185;48.526;9.044;2023-05-07T00:20:48;4.90;;;2.70;;
69083;SDS011;56185;48.526;9.044;2023-05-07T00:23:14;3.90;;;2.93;;
69083;SDS011;56185;48.526;9.044;2023-05-07T00:25:39;4.43;;;2.77;;
69083;SDS011;56185;48.526;9.044;2023-05-07T00:28:05;6.63;;;3.00;;
69083;SDS011;56185;48.526;9.044;2023-05-07T00:30:30;4.35;;;2.83;;
69083;SDS011;56185;48.526;9.044;2023-05-07T00:32:56;7.63;;;3.00;;
69083;SDS011;56185;48.526;9.044;2023-05-07T00:35:21;4.17;;;3.10;;
69083;SDS011;56185;48.526;9.044;2023-05-07T00:37:46;5.93;;;2.60;;
69083;SDS011;56185;48.526;9.044;2023-05-07T00:40:12;3.93;;;2.47;;
69083;SDS011;56185;48.526;9.044;2023-05-07T00:42:37;3.58;;;2.30;;
69083;SDS011;56185;48.526;9.044;2023-05-07T00:45:02;4.47;;;2.63;;
69083;SDS011;56185;48.526;9.044;2023-05-07T00:47:28;3.00;;;2.30;;
69083;SDS011;56185;48.526;9.044;2023-05-07T00:49:54;7.18;;;2.55;;
69083;SDS011;56185;48.526;9.044;2023-05-07T00:52:19;7.38;;;2.92;;
69083;SDS011;56185;48.526;9.044;2023-05-07T00:54:46;3.97;;;2.40;;
69083;SDS011;56185;48.526;9.044;2023-05-07T00:57:12;5.03;;;2.85;;
69083;SDS011;56185;48.526;9.044;2023-05-07T00:59:37;5.22;;;2.60;;
69083;SDS011;56185;48.526;9.044;2023-05-07T01:02:03;6.75;;;2.42;;
69083;SDS011;56185;48.526;9.044;2023-05-07T01:04:28;4.45;;;2.90;;
69083;SDS011;56185;48.526;9.044;2023-05-07T01:06:54;6.03;;;2.70;;
69083;SDS011;56185;48.526;9.044;2023-05-07T01:09:21;4.53;;;2.60;;
69083;SDS011;56185;48.526;9.044;2023-05-07T01:11:47;4.47;;;3.00;;
69083;SDS011;56185;48.526;9.044;2023-05-07T01:14:15;3.67;;;2.70;;
69083;SDS011;56185;48.526;9.044;2023-05-07T01:16:41;5.78;;;3.00;;
69083;SDS011;56185;48.526;9.044;2023-05-07T01:19:06;2.90;;;2.40;;
69083;SDS011;56185;48.526;9.044;2023-05-07T01:21:33;4.88;;;2.70;;
69083;SDS011;56185;48.526;9.044;2023-05-07T01:23:58;5.53;;;2.75;;
69083;SDS011;56185;48.526;9.044;2023-05-07T01:26:24;6.38;;;3.00;;
69083;SDS011;56185;48.526;9.044;2023-05-07T01:28:49;6.00;;;3.10;;
69083;SDS011;56185;48.526;9.044;2023-05-07T01:31:14;5.20;;;2.87;;
69083;SDS011;56185;48.526;9.044;2023-05-07T01:33:41;5.25;;;2.90;;
69083;SDS011;56185;48.526;9.044;2023-05-07T01:36:09;7.05;;;2.70;;
69083;SDS011;56185;48.526;9.044;2023-05-07T01:38:36;5.00;;;2.95;;
69083;SDS011;56185;48.526;9.044;2023-05-07T01:41:03;2.85;;;2.55;;
69083;SDS011;56185;48.526;9.044;2023-05-07T01:43:29;6.75;;;3.28;;
69083;SDS011;56185;48.526;9.044;2023-05-07T01:45:55;4.15;;;2.78;;
69083;SDS011;56185;48.526;9.044;2023-05-07T01:48:22;3.58;;;2.80;;
69083;SDS011;56185;48.526;9.044;2023-05-07T01:50:47;3.35;;;2.90;;
69083;SDS011;56185;48.526;9.044;2023-05-07T01:53:14;7.03;;;3.28;;
69083;SDS011;56185;48.526;9.044;2023-05-07T01:55:39;6.13;;;3.03;;
69083;SDS011;56185;48.526;9.044;2023-05-07T01:58:04;4.50;;;2.93;;
69083;SDS011;56185;48.526;9.044;2023-05-07T02:00:29;5.80;;;3.10;;
69083;SDS011;56185;48.526;9.044;2023-05-07T02:02:55;4.50;;;3.03;;
69083;SDS011;56185;48.526;9.044;2023-05-07T02:05:20;3.63;;;3.00;;
69083;SDS011;56185;48.526;9.044;2023-05-07T02:07:45;6.65;;;3.03;;
69083;SDS011;56185;48.526;9.044;2023-05-07T02:10:11;6.32;;;3.60;;
69083;SDS011;56185;48.526;9.044;2023-05-07T02:12:36;5.90;;;3.10;;
69083;SDS011;56185;48.526;9.044;2023-05-07T02:15:02;4.68;;;3.13;;
69083;SDS011;56185;48.526;9.044;2023-05-07T02:17:27;5.05;;;3.30;;
69083;SDS011;56185;48.526;9.044;2023-05-07T02:19:52;6.27;;;3.10;;
69083;SDS011;56185;48.526;9.044;2023-05-07T02:22:18;5.00;;;3.40;;
69083;SDS011;56185;48.526;9.044;2023-05-07T02:24:43;4.57;;;3.38;;
69083;SDS011;56185;48.526;9.044;2023-05-07T02:27:08;5.93;;;2.90;;
69083;SDS011;56185;48.526;9.044;2023-05-07T02:29:33;3.60;;;2.50;;
69083;SDS011;56185;48.526;9.044;2023-05-07T02:31:59;5.90;;;2.83;;
69083;SDS011;56185;48.526;9.044;2023-05-07T02:34:24;4.30;;;2.60;;
69083;SDS011;56185;48.526;9.044;2023-05-07T02:36:49;4.87;;;2.90;;
69083;SDS011;56185;48.526;9.044;2023-05-07T02:39:14;3.40;;;2.60;;
69083;SDS011;56185;48.526;9.044;2023-05-07T02:41:39;5.20;;;2.70;;
69083;SDS011;56185;48.526;9.044;2023-05-07T02:44:05;5.23;;;2.87;;
69083;SDS011;56185;48.526;9.044;2023-05-07T02:46:30;3.40;;;2.80;;
69083;SDS011;56185;48.526;9.044;2023-05-07T02:48:55;4.75;;;2.70;;
69083;SDS011;56185;48.526;9.044;2023-05-07T02:51:21;4.40;;;2.80;;
69083;SDS011;56185;48.526;9.044;2023-05-07T02:53:47;4.55;;;2.75;;
69083;SDS011;56185;48.526;9.044;2023-05-07T02:56:13;5.03;;;2.85;;
69083;SDS011;56185;48.526;9.044;2023-05-07T02:58:38;4.15;;;2.70;;
69083;SDS011;56185;48.526;9.044;2023-05-07T03:01:03;5.35;;;3.13;;
69083;SDS011;56185;48.526;9.044;2023-05-07T03:03:28;3.73;;;2.47;;
69083;SDS011;56185;48.526;9.044;2023-05-07T03:05:54;4.00;;;2.50;;
69083;SDS011;56185;48.526;9.044;2023-05-07T03:08:19;3.73;;;2.63;;
69083;SDS011;56185;48.526;9.044;2023-05-07T03:10:44;6.57;;;2.60;;
69083;SDS011;56185;48.526;9.044;2023-05-07T03:13:09;3.87;;;2.67;;
69083;SDS011;56185;48.526;9.044;2023-05-07T03:15:35;5.50;;;2.80;;
69083;SDS011;56185;48.526;9.044;2023-05-07T03:18:00;4.70;;;2.73;;
69083;SDS011;56185;48.526;9.044;2023-05-07T03:20:25;10.23;;;3.60;;
69083;SDS011;56185;48.526;9.044;2023-05-07T03:22:50;4.50;;;3.22;;
69083;SDS011;56185;48.526;9.044;2023-05-07T03:25:16;8.43;;;3.67;;
69083;SDS011;56185;48.526;9.044;2023-05-07T03:27:41;4.33;;;3.10;;
69083;SDS011;56185;48.526;9.044;2023-05-07T03:30:06;5.90;;;3.20;;
69083;SDS011;56185;48.526;9.044;2023-05-07T03:32:32;4.20;;;3.50;;
69083;SDS011;56185;48.526;9.044;2023-05-07T03:34:57;8.15;;;3.63;;
69083;SDS011;56185;48.526;9.044;2023-05-07T03:37:23;4.60;;;3.60;;
69083;SDS011;56185;48.526;9.044;2023-05-07T03:39:48;7.00;;;3.30;;
69083;SDS011;56185;48.526;9.044;2023-05-07T03:42:14;4.25;;;3.50;;
69083;SDS011;56185;48.526;9.044;2023-05-07T03:44:40;4.88;;;3.63;;
69083;SDS011;56185;48.526;9.044;2023-05-07T03:47:05;5.53;;;3.37;;
69083;SDS011;56185;48.526;9.044;2023-05-07T03:49:30;8.17;;;3.60;;
69083;SDS011;56185;48.526;9.044;2023-05-07T03:51:56;8.88;;;3.47;;
69083;SDS011;56185;48.526;9.044;2023-05-07T03:54:21;6.20;;;3.47;;
69083;SDS011;56185;48.526;9.044;2023-05-07T03:56:46;6.10;;;3.50;;
69083;SDS011;56185;48.526;9.044;2023-05-07T03:59:12;3.75;;;3.15;;
69083;SDS011;56185;48.526;9.044;2023-05-07T04:01:37;4.97;;;3.35;;
69083;SDS011;56185;48.526;9.044;2023-05-07T04:04:03;5.40;;;3.42;;
69083;SDS011;56185;48.526;9.044;2023-05-07T04:06:28;4.15;;;3.38;;
69083;SDS011;56185;48.526;9.044;2023-05-07T04:08:53;4.82;;;3.33;;
69083;SDS011;56185;48.526;9.044;2023-05-07T04:11:18;5.10;;;3.50;;
69083;SDS011;56185;48.526;9.044;2023-05-07T04:13:44;4.50;;;3.50;;
69083;SDS011;56185;48.526;9.044;2023-05-07T04:16:09;5.00;;;3.30;;
69083;SDS011;56185;48.526;9.044;2023-05-07T04:18:34;5.03;;;3.50;;
69083;SDS011;56185;48.526;9.044;2023-05-07T04:20:59;4.78;;;3.58;;
69083;SDS011;56185;48.526;9.044;2023-05-07T04:23:25;6.17;;;3.90;;
69083;SDS011;56185;48.526;9.044;2023-05-07T04:25:50;4.43;;;3.70;;
69083;SDS011;56185;48.526;9.044;2023-05-07T04:28:15;5.03;;;3.38;;
69083;SDS011;56185;48.526;9.044;2023-05-07T04:30:41;5.30;;;3.40;;
69083;SDS011;56185;48.526;9.044;2023-05-07T04:33:06;5.93;;;3.60;;
69083;SDS011;56185;48.526;9.044;2023-05-07T04:35:31;5.63;;;4.22;;
69083;SDS011;56185;48.526;9.044;2023-05-07T04:37:57;4.72;;;3.65;;
69083;SDS011;56185;48.526;9.044;2023-05-07T04:40:22;4.07;;;3.20;;
69083;SDS011;56185;48.526;9.044;2023-05-07T04:42:47;5.37;;;3.37;;
69083;SDS011;56185;48.526;9.044;2023-05-07T04:45:12;3.60;;;3.00;;
69083;SDS011;56185;48.526;9.044;2023-05-07T04:47:38;4.53;;;3.33;;
69083;SDS011;56185;48.526;9.044;2023-05-07T04:50:03;8.30;;;3.17;;
69083;SDS011;56185;48.526;9.044;2023-05-07T04:52:29;5.53;;;2.90;;
69083;SDS011;56185;48.526;9.044;2023-05-07T04:54:55;4.90;;;2.92;;
69083;SDS011;56185;48.526;9.044;2023-05-07T04:57:20;9.17;;;2.90;;
69083;SDS011;56185;48.526;9.044;2023-05-07T04:59:45;4.00;;;3.08;;
69083;SDS011;56185;48.526;9.044;2023-05-07T05:02:10;11.40;;;3.07;;
69083;SDS011;56185;48.526;9.044;2023-05-07T05:04:36;5.57;;;3.10;;
69083;SDS011;56185;48.526;9.044;2023-05-07T05:07:01;4.63;;;3.10;;
69083;SDS011;56185;48.526;9.044;2023-05-07T05:09:26;3.80;;;3.00;;
69083;SDS011;56185;48.526;9.044;2023-05-07T05:11:51;3.50;;;2.80;;
69083;SDS011;56185;48.526;9.044;2023-05-07T05:14:17;3.83;;;2.80;;
69083;SDS011;56185;48.526;9.044;2023-05-07T05:16:42;4.65;;;2.42;;
69083;SDS011;56185;48.526;9.044;2023-05-07T05:19:08;4.07;;;3.03;;
69083;SDS011;56185;48.526;9.044;2023-05-07T05:21:33;4.07;;;2.65;;
69083;SDS011;56185;48.526;9.044;2023-05-07T05:23:58;5.07;;;3.07;;
69083;SDS011;56185;48.526;9.044;2023-05-07T05:26:23;4.88;;;3.20;;
69083;SDS011;56185;48.526;9.044;2023-05-07T05:28:49;5.63;;;3.65;;
69083;SDS011;56185;48.526;9.044;2023-05-07T05:31:14;17.95;;;10.30;;
69083;SDS011;56185;48.526;9.044;2023-05-07T05:33:40;8.52;;;5.35;;
69083;SDS011;56185;48.526;9.044;2023-05-07T05:36:06;4.80;;;3.77;;
69083;SDS011;56185;48.526;9.044;2023-05-07T05:38:34;4.80;;;3.38;;
69083;SDS011;56185;48.526;9.044;2023-05-07T05:40:59;4.43;;;3.30;;
69083;SDS011;56185;48.526;9.044;2023-05-07T05:43:24;4.07;;;2.90;;
69083;SDS011;56185;48.526;9.044;2023-05-07T05:45:49;5.13;;;2.90;;
69083;SDS011;56185;48.526;9.044;2023-05-07T05:48:15;4.37;;;2.90;;
69083;SDS011;56185;48.526;9.044;2023-05-07T05:50:41;4.20;;;3.30;;
69083;SDS011;56185;48.526;9.044;2023-05-07T05:53:07;5.53;;;3.00;;
69083;SDS011;56185;48.526;9.044;2023-05-07T05:55:32;4.30;;;3.10;;
69083;SDS011;56185;48.526;9.044;2023-05-07T05:57:59;3.35;;;2.90;;
69083;SDS011;56185;48.526;9.044;2023-05-07T06:00:24;6.20;;;3.20;;
69083;SDS011;56185;48.526;9.044;2023-05-07T06:02:50;6.68;;;3.13;;
69083;SDS011;56185;48.526;9.044;2023-05-07T06:05:15;5.38;;;3.20;;
69083;SDS011;56185;48.526;9.044;2023-05-07T06:07:40;3.70;;;2.97;;
69083;SDS011;56185;48.526;9.044;2023-05-07T06:10:06;4.43;;;3.23;;
69083;SDS011;56185;48.526;9.044;2023-05-07T06:12:33;5.20;;;2.88;;
69083;SDS011;56185;48.526;9.044;2023-05-07T06:14:59;4.13;;;3.15;;
69083;SDS011;56185;48.526;9.044;2023-05-07T06:17:25;4.57;;;3.10;;
69083;SDS011;56185;48.526;9.044;2023-05-07T06:19:51;7.68;;;3.50;;
69083;SDS011;56185;48.526;9.044;2023-05-07T06:22:17;4.63;;;3.15;;
69083;SDS011;56185;48.526;9.044;2023-05-07T06:24:42;4.85;;;3.03;;
69083;SDS011;56185;48.526;9.044;2023-05-07T06:27:13;4.50;;;3.13;;
69083;SDS011;56185;48.526;9.044;2023-05-07T06:29:38;3.85;;;3.17;;
69083;SDS011;56185;48.526;9.044;2023-05-07T06:32:10;4.87;;;3.17;;
69083;SDS011;56185;48.526;9.044;2023-05-07T06:34:38;5.03;;;3.05;;
69083;SDS011;56185;48.526;9.044;2023-05-07T06:37:04;4.22;;;3.10;;
69083;SDS011;56185;48.526;9.044;2023-05-07T06:39:30;5.57;;;3.28;;
69083;SDS011;56185;48.526;9.044;2023-05-07T06:41:55;9.77;;;3.78;;
69083;SDS011;56185;48.526;9.044;2023-05-07T06:44:21;5.47;;;3.30;;
69083;SDS011;56185;48.526;9.044;2023-05-07T06:46:46;3.30;;;2.90;;
69083;SDS011;56185;48.526;9.044;2023-05-07T06:49:14;3.95;;;3.05;;
69083;SDS011;56185;48.526;9.044;2023-05-07T06:51:40;5.80;;;3.20;;
69083;SDS011;56185;48.526;9.044;2023-05-07T06:54:05;4.95;;;3.40;;
69083;SDS011;56185;48.526;9.044;2023-05-07T06:56:31;5.10;;;3.03;;
69083;SDS011;56185;48.526;9.044;2023-05-07T06:58:57;4.65;;;2.88;;
69083;SDS011;56185;48.526;9.044;2023-05-07T07:01:22;4.13;;;3.22;;
69083;SDS011;56185;48.526;9.044;2023-05-07T07:03:47;4.20;;;2.90;;
69083;SDS011;56185;48.526;9.044;2023-05-07T07:06:13;6.18;;;3.03;;
69083;SDS011;56185;48.526;9.044;2023-05-07T07:08:38;3.20;;;2.80;;
69083;SDS011;56185;48.526;9.044;2023-05-07T07:11:03;3.87;;;2.80;;
69083;SDS011;56185;48.526;9.044;2023-05-07T07:13:28;4.45;;;3.28;;
69083;SDS011;56185;48.526;9.044;2023-05-07T07:15:54;4.95;;;3.05;;
69083;SDS011;56185;48.526;9.044;2023-05-07T07:18:19;3.95;;;2.97;;
69083;SDS011;56185;48.526;9.044;2023-05-07T07:20:44;6.00;;;3.05;;
69083;SDS011;56185;48.526;9.044;2023-05-07T07:23:09;5.27;;;3.10;;
69083;SDS011;56185;48.526;9.044;2023-05-07T07:25:35;3.90;;;3.07;;
69083;SDS011;56185;48.526;9.044;2023-05-07T07:28:00;5.90;;;3.13;;
69083;SDS011;56185;48.526;9.044;2023-05-07T07:30:25;5.40;;;3.25;;
69083;SDS011;56185;48.526;9.044;2023-05-07T07:32:51;6.20;;;3.30;;
69083;SDS011;56185;48.526;9.044;2023-05-07T07:35:16;5.77;;;3.37;;
69083;SDS011;56185;48.526;9.044;2023-05-07T07:37:41;7.00;;;3.47;;
69083;SDS011;56185;48.526;9.044;2023-05-07T07:40:07;6.13;;;3.10;;
69083;SDS011;56185;48.526;9.044;2023-05-07T07:42:32;5.57;;;3.17;;
69083;SDS011;56185;48.526;9.044;2023-05-07T07:44:58;3.80;;;2.80;;
69083;SDS011;56185;48.526;9.044;2023-05-07T07:47:23;3.93;;;3.13;;
69083;SDS011;56185;48.526;9.044;2023-05-07T07:49:48;3.80;;;3.08;;
69083;SDS011;56185;48.526;9.044;2023-05-07T07:52:13;4.37;;;3.10;;
69083;SDS011;56185;48.526;9.044;2023-05-07T07:54:39;3.60;;;3.00;;
69083;SDS011;56185;48.526;9.044;2023-05-07T07:57:04;6.20;;;3.20;;
69083;SDS011;56185;48.526;9.044;2023-05-07T07:59:29;4.63;;;2.97;;
69083;SDS011;56185;48.526;9.044;2023-05-07T08:01:55;4.57;;;3.22;;
69083;SDS011;56185;48.526;9.044;2023-05-07T08:04:21;5.37;;;3.07;;
69083;SDS011;56185;48.526;9.044;2023-05-07T08:06:46;3.63;;;3.03;;
69083;SDS011;56185;48.526;9.044;2023-05-07T08:09:11;4.37;;;3.37;;
69083;SDS011;56185;48.526;9.044;2023-05-07T08:11:37;5.43;;;3.30;;
69083;SDS011;56185;48.526;9.044;2023-05-07T08:14:02;4.20;;;3.17;;
69083;SDS011;56185;48.526;9.044;2023-05-07T08:16:28;3.42;;;2.75;;
69083;SDS011;56185;48.526;9.044;2023-05-07T08:18:53;3.53;;;2.90;;
69083;SDS011;56185;48.526;9.044;2023-05-07T08:21:19;7.05;;;3.00;;
69083;SDS011;56185;48.526;9.044;2023-05-07T08:23:44;6.73;;;3.10;;
69083;SDS011;56185;48.526;9.044;2023-05-07T08:26:09;4.43;;;2.80;;
69083;SDS011;56185;48.526;9.044;2023-05-07T08:28:34;4.73;;;2.93;;
69083;SDS011;56185;48.526;9.044;2023-05-07T08:31:00;3.15;;;2.60;;
69083;SDS011;56185;48.526;9.044;2023-05-07T08:33:25;5.88;;;2.88;;
69083;SDS011;56185;48.526;9.044;2023-05-07T08:35:50;4.15;;;3.08;;
69083;SDS011;56185;48.526;9.044;2023-05-07T08:38:16;3.40;;;2.80;;
69083;SDS011;56185;48.526;9.044;2023-05-07T08:40:41;4.30;;;2.77;;
69083;SDS011;56185;48.526;9.044;2023-05-07T08:43:06;3.10;;;2.30;;
69083;SDS011;56185;48.526;9.044;2023-05-07T08:45:32;4.28;;;2.80;;
69083;SDS011;56185;48.526;9.044;2023-05-07T08:47:59;3.22;;;2.45;;
69083;SDS011;56185;48.526;9.044;2023-05-07T08:50:27;4.28;;;2.75;;
69083;SDS011;56185;48.526;9.044;2023-05-07T08:52:53;5.50;;;2.70;;
69083;SDS011;56185;48.526;9.044;2023-05-07T08:55:18;4.53;;;2.60;;
69083;SDS011;56185;48.526;9.044;2023-05-07T08:57:44;5.43;;;2.35;;
69083;SDS011;56185;48.526;9.044;2023-05-07T09:00:10;2.55;;;2.17;;
69083;SDS011;56185;48.526;9.044;2023-05-07T09:02:36;3.40;;;2.75;;
69083;SDS011;56185;48.526;9.044;2023-05-07T09:05:01;3.92;;;2.78;;
69083;SDS011;56185;48.526;9.044;2023-05-07T09:07:27;2.88;;;2.40;;
69083;SDS011;56185;48.526;9.044;2023-05-07T09:09:52;3.85;;;2.45;;
69083;SDS011;56185;48.526;9.044;2023-05-07T09:12:18;3.15;;;2.20;;
69083;SDS011;56185;48.526;9.044;2023-05-07T09:14:43;5.22;;;2.55;;
69083;SDS011;56185;48.526;9.044;2023-05-07T09:19:36;4.65;;;2.22;;
69083;SDS011;56185;48.526;9.044;2023-05-07T09:22:02;3.80;;;2.50;;
69083;SDS011;56185;48.526;9.044;2023-05-07T09:24:28;3.45;;;2.20;;
69083;SDS011;56185;48.526;9.044;2023-05-07T09:26:54;3.13;;;2.22;;
69083;SDS011;56185;48.526;9.044;2023-05-07T09:29:20;6.65;;;2.40;;
69083;SDS011;56185;48.526;9.044;2023-05-07T09:31:46;4.40;;;2.25;;
69083;SDS011;56185;48.526;9.044;2023-05-07T09:34:11;3.58;;;2.20;;
69083;SDS011;56185;48.526;9.044;2023-05-07T09:36:36;3.28;;;2.03;;
69083;SDS011;56185;48.526;9.044;2023-05-07T09:39:01;3.80;;;2.30;;
69083;SDS011;56185;48.526;9.044;2023-05-07T09:41:27;5.35;;;2.67;;
69083;SDS011;56185;48.526;9.044;2023-05-07T09:43:55;3.85;;;2.30;;
69083;SDS011;56185;48.526;9.044;2023-05-07T09:46:33;3.10;;;2.13;;
69083;SDS011;56185;48.526;9.044;2023-05-07T09:49:01;4.20;;;2.28;;
69083;SDS011;56185;48.526;9.044;2023-05-07T09:52:00;4.72;;;2.40;;
69083;SDS011;56185;48.526;9.044;2023-05-07T09:54:19;4.57;;;2.67;;
69083;SDS011;56185;48.526;9.044;2023-05-07T09:56:44;3.35;;;2.28;;
69083;SDS011;56185;48.526;9.044;2023-05-07T09:59:13;2.72;;;2.20;;
69083;SDS011;56185;48.526;9.044;2023-05-07T10:01:40;3.97;;;2.22;;
69083;SDS011;56185;48.526;9.044;2023-05-07T10:04:07;3.10;;;2.08;;
69083;SDS011;56185;48.526;9.044;2023-05-07T10:06:34;3.65;;;2.25;;
69083;SDS011;56185;48.526;9.044;2023-05-07T10:09:00;3.00;;;2.00;;
69083;SDS011;56185;48.526;9.044;2023-05-07T10:11:27;2.95;;;1.95;;
69083;SDS011;56185;48.526;9.044;2023-05-07T10:13:53;2.85;;;2.10;;
69083;SDS011;56185;48.526;9.044;2023-05-07T10:16:18;5.10;;;2.38;;
69083;SDS011;56185;48.526;9.044;2023-05-07T10:18:44;3.38;;;1.92;;
69083;SDS011;56185;48.526;9.044;2023-05-07T10:21:11;2.70;;;2.00;;
69083;SDS011;56185;48.526;9.044;2023-05-07T10:23:38;4.00;;;1.98;;
69083;SDS011;56185;48.526;9.044;2023-05-07T10:26:05;3.75;;;2.25;;
69083;SDS011;56185;48.526;9.044;2023-05-07T10:28:36;2.60;;;2.10;;
69083;SDS011;56185;48.526;9.044;2023-05-07T10:31:14;3.75;;;2.08;;
69083;SDS011;56185;48.526;9.044;2023-05-07T10:34:01;2.35;;;1.70;;
69083;SDS011;56185;48.526;9.044;2023-05-07T10:36:34;4.40;;;2.00;;
69083;SDS011;56185;48.526;9.044;2023-05-07T10:38:59;5.20;;;2.00;;
69083;SDS011;56185;48.526;9.044;2023-05-07T10:41:25;2.20;;;1.80;;
69083;SDS011;56185;48.526;9.044;2023-05-07T10:43:50;4.83;;;1.80;;
69083;SDS011;56185;48.526;9.044;2023-05-07T10:46:17;3.40;;;2.10;;
69083;SDS011;56185;48.526;9.044;2023-05-07T10:51:27;3.60;;;2.00;;
69083;SDS011;56185;48.526;9.044;2023-05-07T10:56:36;2.80;;;1.80;;
69083;SDS011;56185;48.526;9.044;2023-05-07T11:01:53;5.90;;;2.05;;
69083;SDS011;56185;48.526;9.044;2023-05-07T11:04:19;6.07;;;2.03;;
69083;SDS011;56185;48.526;9.044;2023-05-07T11:12:16;2.30;;;1.60;;
69083;SDS011;56185;48.526;9.044;2023-05-07T11:17:07;2.93;;;1.80;;
69083;SDS011;56185;48.526;9.044;2023-05-07T11:25:00;2.63;;;1.80;;
69083;SDS011;56185;48.526;9.044;2023-05-07T11:27:26;3.60;;;1.67;;
69083;SDS011;56185;48.526;9.044;2023-05-07T11:29:51;2.78;;;1.55;;
69083;SDS011;56185;48.526;9.044;2023-05-07T11:32:26;2.92;;;1.90;;
69083;SDS011;56185;48.526;9.044;2023-05-07T11:34:54;2.50;;;1.50;;
69083;SDS011;56185;48.526;9.044;2023-05-07T11:37:20;3.03;;;1.73;;
69083;SDS011;56185;48.526;9.044;2023-05-07T11:39:46;2.72;;;1.42;;
69083;SDS011;56185;48.526;9.044;2023-05-07T11:42:31;4.78;;;1.70;;
69083;SDS011;56185;48.526;9.044;2023-05-07T11:45:00;3.05;;;1.52;;
69083;SDS011;56185;48.526;9.044;2023-05-07T11:47:26;4.05;;;1.58;;
69083;SDS011;56185;48.526;9.044;2023-05-07T11:49:55;2.22;;;1.63;;
69083;SDS011;56185;48.526;9.044;2023-05-07T11:52:21;2.55;;;1.60;;
69083;SDS011;56185;48.526;9.044;2023-05-07T11:54:51;3.95;;;1.50;;
69083;SDS011;56185;48.526;9.044;2023-05-07T11:57:17;5.53;;;1.73;;
69083;SDS011;56185;48.526;9.044;2023-05-07T11:59:42;5.13;;;1.77;;
69083;SDS011;56185;48.526;9.044;2023-05-07T12:05:13;2.83;;;1.98;;
69083;SDS011;56185;48.526;9.044;2023-05-07T12:07:39;2.67;;;1.75;;
69083;SDS011;56185;48.526;9.044;2023-05-07T12:10:05;2.75;;;1.70;;
69083;SDS011;56185;48.526;9.044;2023-05-07T12:12:30;4.25;;;1.95;;
69083;SDS011;56185;48.526;9.044;2023-05-07T12:14:56;3.57;;;1.70;;
69083;SDS011;56185;48.526;9.044;2023-05-07T12:17:21;2.37;;;1.80;;
69083;SDS011;56185;48.526;9.044;2023-05-07T12:19:46;2.35;;;1.80;;
69083;SDS011;56185;48.526;9.044;2023-05-07T12:22:12;3.33;;;1.60;;
69083;SDS011;56185;48.526;9.044;2023-05-07T12:24:44;2.78;;;1.60;;
69083;SDS011;56185;48.526;9.044;2023-05-07T12:27:12;3.97;;;1.75;;
69083;SDS011;56185;48.526;9.044;2023-05-07T12:29:38;4.72;;;1.85;;
69083;SDS011;56185;48.526;9.044;2023-05-07T12:32:11;3.70;;;1.67;;
69083;SDS011;56185;48.526;9.044;2023-05-07T12:34:38;3.17;;;1.75;;
69083;SDS011;56185;48.526;9.044;2023-05-07T12:37:04;3.17;;;1.83;;
69083;SDS011;56185;48.526;9.044;2023-05-07T12:39:29;2.83;;;1.77;;
69083;SDS011;56185;48.526;9.044;2023-05-07T12:41:55;3.23;;;1.80;;
69083;SDS011;56185;48.526;9.044;2023-05-07T12:44:34;2.95;;;1.70;;
69083;SDS011;56185;48.526;9.044;2023-05-07T12:47:03;2.72;;;1.75;;
69083;SDS011;56185;48.526;9.044;2023-05-07T12:49:28;2.45;;;1.60;;
69083;SDS011;56185;48.526;9.044;2023-05-07T12:51:53;2.25;;;1.75;;
69083;SDS011;56185;48.526;9.044;2023-05-07T12:54:29;2.60;;;1.73;;
69083;SDS011;56185;48.526;9.044;2023-05-07T12:57:04;3.08;;;1.75;;
69083;SDS011;56185;48.526;9.044;2023-05-07T12:59:34;2.58;;;1.63;;
69083;SDS011;56185;48.526;9.044;2023-05-07T13:02:04;5.68;;;1.85;;
69083;SDS011;56185;48.526;9.044;2023-05-07T13:04:29;4.88;;;1.73;;
69083;SDS011;56185;48.526;9.044;2023-05-07T13:06:55;4.60;;;2.08;;
69083;SDS011;56185;48.526;9.044;2023-05-07T13:09:20;6.73;;;2.80;;
69083;SDS011;56185;48.526;9.044;2023-05-07T13:11:45;11.00;;;3.27;;
69083;SDS011;56185;48.526;9.044;2023-05-07T13:14:11;6.93;;;2.67;;
69083;SDS011;56185;48.526;9.044;2023-05-07T13:16:36;9.38;;;3.00;;
69083;SDS011;56185;48.526;9.044;2023-05-07T13:19:02;5.70;;;3.23;;
69083;SDS011;56185;48.526;9.044;2023-05-07T13:21:27;8.53;;;3.10;;
69083;SDS011;56185;48.526;9.044;2023-05-07T13:23:55;9.00;;;3.40;;
69083;SDS011;56185;48.526;9.044;2023-05-07T13:26:20;6.47;;;3.13;;
69083;SDS011;56185;48.526;9.044;2023-05-07T13:28:46;6.23;;;2.67;;
69083;SDS011;56185;48.526;9.044;2023-05-07T13:31:11;4.67;;;2.50;;
69083;SDS011;56185;48.526;9.044;2023-05-07T13:33:36;11.20;;;3.00;;
69083;SDS011;56185;48.526;9.044;2023-05-07T13:36:02;3.23;;;2.60;;
69083;SDS011;56185;48.526;9.044;2023-05-07T13:38:27;5.68;;;3.33;;
69083;SDS011;56185;48.526;9.044;2023-05-07T13:40:52;4.20;;;2.72;;
69083;SDS011;56185;48.526;9.044;2023-05-07T13:43:18;7.63;;;3.00;;
69083;SDS011;56185;48.526;9.044;2023-05-07T13:45:43;5.93;;;3.17;;
69083;SDS011;56185;48.526;9.044;2023-05-07T13:48:09;6.13;;;3.70;;
69083;SDS011;56185;48.526;9.044;2023-05-07T13:50:34;7.22;;;3.15;;
69083;SDS011;56185;48.526;9.044;2023-05-07T13:52:59;7.47;;;3.50;;
69083;SDS011;56185;48.526;9.044;2023-05-07T13:55:25;5.93;;;3.07;;
69083;SDS011;56185;48.526;9.044;2023-05-07T13:57:57;7.10;;;2.88;;
69083;SDS011;56185;48.526;9.044;2023-05-07T14:00:23;7.18;;;3.05;;
69083;SDS011;56185;48.526;9.044;2023-05-07T14:02:52;7.43;;;3.40;;
69083;SDS011;56185;48.526;9.044;2023-05-07T14:05:18;5.13;;;3.00;;
69083;SDS011;56185;48.526;9.044;2023-05-07T14:07:43;7.07;;;3.35;;
69083;SDS011;56185;48.526;9.044;2023-05-07T14:10:08;6.45;;;2.95;;
69083;SDS011;56185;48.526;9.044;2023-05-07T14:12:34;6.55;;;2.80;;
69083;SDS011;56185;48.526;9.044;2023-05-07T14:14:59;8.77;;;2.92;;
69083;SDS011;56185;48.526;9.044;2023-05-07T14:17:25;7.43;;;3.10;;
69083;SDS011;56185;48.526;9.044;2023-05-07T14:19:50;6.38;;;3.08;;
69083;SDS011;56185;48.526;9.044;2023-05-07T14:22:15;6.25;;;2.92;;
69083;SDS011;56185;48.526;9.044;2023-05-07T14:24:40;4.53;;;2.57;;
69083;SDS011;56185;48.526;9.044;2023-05-07T14:27:06;4.97;;;2.50;;
69083;SDS011;56185;48.526;9.044;2023-05-07T14:29:31;3.92;;;2.50;;
69083;SDS011;56185;48.526;9.044;2023-05-07T14:31:56;6.93;;;2.70;;
69083;SDS011;56185;48.526;9.044;2023-05-07T14:34:21;4.60;;;2.40;;
69083;SDS011;56185;48.526;9.044;2023-05-07T14:36:47;4.87;;;2.83;;
69083;SDS011;56185;48.526;9.044;2023-05-07T14:39:12;4.83;;;2.60;;
69083;SDS011;56185;48.526;9.044;2023-05-07T14:41:37;7.70;;;2.80;;
69083;SDS011;56185;48.526;9.044;2023-05-07T14:44:03;6.45;;;2.70;;
69083;SDS011;56185;48.526;9.044;2023-05-07T14:46:28;5.80;;;2.33;;
69083;SDS011;56185;48.526;9.044;2023-05-07T14:48:58;4.22;;;2.30;;
69083;SDS011;56185;48.526;9.044;2023-05-07T14:51:24;5.55;;;2.30;;
69083;SDS011;56185;48.526;9.044;2023-05-07T14:53:50;4.18;;;2.60;;
69083;SDS011;56185;48.526;9.044;2023-05-07T14:56:15;4.63;;;2.35;;
69083;SDS011;56185;48.526;9.044;2023-05-07T14:58:41;4.55;;;2.65;;
69083;SDS011;56185;48.526;9.044;2023-05-07T15:01:06;4.65;;;2.47;;
69083;SDS011;56185;48.526;9.044;2023-05-07T15:03:31;4.50;;;2.90;;
69083;SDS011;56185;48.526;9.044;2023-05-07T15:05:57;4.38;;;2.55;;
69083;SDS011;56185;48.526;9.044;2023-05-07T15:08:22;6.20;;;3.47;;